createdAt,value
2018-06-15T00:01:32.905Z,16.20
2018-06-15T00:04:01.310Z,16.20
2018-06-15T00:06:29.677Z,16.10
2018-06-15T00:08:58.120Z,16.10
2018-06-15T00:11:26.523Z,16.10
2018-06-15T00:13:54.981Z,16.10
2018-06-15T00:16:23.363Z,16.10
2018-06-15T00:18:51.870Z,16.20
2018-06-15T00:21:20.246Z,16.10
2018-06-15T00:23:48.605Z,16.10
2018-06-15T00:26:17.582Z,16.10
2018-06-15T00:28:46.822Z,16.10
2018-06-15T00:31:15.382Z,16.00
2018-06-15T00:33:43.863Z,16.10
2018-06-15T00:36:12.264Z,16.10
2018-06-15T00:38:40.629Z,16.10
2018-06-15T00:41:09.026Z,16.00
2018-06-15T00:43:37.399Z,16.10
2018-06-15T00:46:05.769Z,16.10
2018-06-15T00:48:34.147Z,16.10
2018-06-15T00:51:02.576Z,16.10
2018-06-15T00:53:31.062Z,16.10
2018-06-15T00:56:00.307Z,16.00
2018-06-15T00:58:28.670Z,16.00
2018-06-15T01:00:57.027Z,16.00
2018-06-15T01:03:25.448Z,16.00
2018-06-15T01:05:53.842Z,16.00
2018-06-15T01:08:22.280Z,16.00
2018-06-15T01:10:50.615Z,16.00
2018-06-15T01:13:19.060Z,16.00
2018-06-15T01:15:47.425Z,16.00
2018-06-15T01:18:15.787Z,16.00
2018-06-15T01:20:44.305Z,16.00
2018-06-15T01:23:12.679Z,16.00
2018-06-15T01:25:41.073Z,16.00
2018-06-15T01:28:10.332Z,16.00
2018-06-15T01:30:38.698Z,16.00
2018-06-15T01:33:07.826Z,16.00
2018-06-15T01:35:36.178Z,16.00
2018-06-15T01:38:05.402Z,15.90
2018-06-15T01:40:33.811Z,15.90
2018-06-15T01:43:02.178Z,15.90
2018-06-15T01:45:30.622Z,15.90
2018-06-15T01:47:58.991Z,15.90
2018-06-15T01:50:28.140Z,15.90
2018-06-15T01:52:56.678Z,15.90
2018-06-15T01:55:25.793Z,15.90
2018-06-15T01:57:54.253Z,15.90
2018-06-15T02:00:23.373Z,15.90
2018-06-15T02:02:51.773Z,15.80
2018-06-15T02:05:20.138Z,15.90
2018-06-15T02:07:48.522Z,15.90
2018-06-15T02:10:16.906Z,15.90
2018-06-15T02:12:45.494Z,15.90
2018-06-15T02:15:13.846Z,15.90
2018-06-15T02:17:42.221Z,15.90
2018-06-15T02:20:10.598Z,15.90
2018-06-15T02:22:39.144Z,15.90
2018-06-15T02:25:07.713Z,15.90
2018-06-15T02:27:36.053Z,15.90
2018-06-15T02:30:04.459Z,15.90
2018-06-15T02:32:32.829Z,15.90
2018-06-15T02:35:01.215Z,15.90
2018-06-15T02:37:29.570Z,15.90
2018-06-15T02:39:57.971Z,15.90
2018-06-15T02:42:26.361Z,15.90
2018-06-15T02:44:54.710Z,15.90
2018-06-15T02:47:23.162Z,15.90
2018-06-15T02:49:52.275Z,15.90
2018-06-15T02:52:20.651Z,15.90
2018-06-15T02:54:49.054Z,15.90
2018-06-15T02:57:17.417Z,15.90
2018-06-15T02:59:45.798Z,15.90
2018-06-15T03:02:14.231Z,16.00
2018-06-15T03:04:42.763Z,16.00
2018-06-15T03:07:11.114Z,15.90
2018-06-15T03:09:40.232Z,16.00
2018-06-15T03:12:08.638Z,16.00
2018-06-15T03:14:37.012Z,16.00
2018-06-15T03:17:05.452Z,16.00
2018-06-15T03:19:33.874Z,16.00
2018-06-15T03:22:02.274Z,16.00
2018-06-15T03:24:30.632Z,15.90
2018-06-15T03:26:59.010Z,15.90
2018-06-15T03:29:27.469Z,15.90
2018-06-15T03:31:56.072Z,15.90
2018-06-15T03:34:24.426Z,15.90
2018-06-15T03:36:53.784Z,16.00
2018-06-15T03:39:22.142Z,16.00
2018-06-15T03:41:50.514Z,16.00
2018-06-15T03:44:18.983Z,16.00
2018-06-15T03:46:47.341Z,16.00
2018-06-15T03:49:15.858Z,16.00
2018-06-15T03:51:44.191Z,15.90
2018-06-15T03:54:12.586Z,16.00
2018-06-15T03:56:41.797Z,16.00
2018-06-15T03:59:10.911Z,16.00
2018-06-15T04:01:39.346Z,15.90
2018-06-15T04:04:07.716Z,16.00
2018-06-15T04:06:36.086Z,15.90
2018-06-15T04:09:04.452Z,15.90
2018-06-15T04:11:32.810Z,16.00
2018-06-15T04:14:01.177Z,16.00
2018-06-15T04:16:29.525Z,16.10
2018-06-15T04:18:58.015Z,16.10
2018-06-15T04:21:26.446Z,16.10
2018-06-15T04:23:55.055Z,16.20
2018-06-15T04:26:23.418Z,16.20
2018-06-15T04:28:51.776Z,16.20
2018-06-15T04:31:20.187Z,16.20
2018-06-15T04:33:48.531Z,16.20
2018-06-15T04:36:16.887Z,16.20
2018-06-15T04:38:46.012Z,16.30
2018-06-15T04:41:14.374Z,16.30
2018-06-15T04:43:42.740Z,16.30
2018-06-15T04:46:11.876Z,16.30
2018-06-15T04:48:40.256Z,16.30
2018-06-15T04:51:08.619Z,16.40
2018-06-15T04:53:37.072Z,16.40
2018-06-15T04:56:05.470Z,16.40
2018-06-15T04:58:34.348Z,16.50
2018-06-15T05:01:03.543Z,16.60
2018-06-15T05:03:32.663Z,16.60
2018-06-15T05:06:01.057Z,16.60
2018-06-15T05:08:29.434Z,16.70
2018-06-15T05:10:57.818Z,16.60
2018-06-15T05:13:26.166Z,16.60
2018-06-15T05:15:55.391Z,16.70
2018-06-15T05:18:23.733Z,16.70
2018-06-15T05:20:52.863Z,16.70
2018-06-15T05:23:21.290Z,16.70
2018-06-15T05:25:49.701Z,16.70
2018-06-15T05:28:18.305Z,16.70
2018-06-15T05:30:46.806Z,16.80
2018-06-15T05:33:15.180Z,16.80
2018-06-15T05:35:43.524Z,16.90
2018-06-15T05:38:11.924Z,16.90
2018-06-15T05:40:40.265Z,16.90
2018-06-15T05:43:09.403Z,17.00
2018-06-15T05:45:37.753Z,17.00
2018-06-15T05:48:06.111Z,17.00
2018-06-15T05:50:34.654Z,17.00
2018-06-15T05:53:02.993Z,17.00
2018-06-15T05:55:32.142Z,17.20
2018-06-15T05:58:01.317Z,17.20
2018-06-15T06:00:29.675Z,17.30
2018-06-15T06:02:58.042Z,17.40
2018-06-15T06:05:27.175Z,17.50
2018-06-15T06:07:55.549Z,17.50
2018-06-15T06:10:23.946Z,17.70
2018-06-15T06:12:52.327Z,17.90
2018-06-15T06:15:20.765Z,18.10
2018-06-15T06:17:49.196Z,18.20
2018-06-15T06:20:17.621Z,18.30
2018-06-15T06:22:46.761Z,18.30
2018-06-15T06:25:15.124Z,18.20
2018-06-15T06:27:43.579Z,18.20
2018-06-15T06:30:11.992Z,18.30
2018-06-15T06:32:40.385Z,18.30
2018-06-15T06:35:08.985Z,18.30
2018-06-15T06:37:37.344Z,18.20
2018-06-15T06:40:05.765Z,18.10
2018-06-15T06:42:34.178Z,18.10
2018-06-15T06:45:02.561Z,18.00
2018-06-15T06:47:31.689Z,18.20
2018-06-15T06:50:00.067Z,18.10
2018-06-15T06:52:28.528Z,18.20
2018-06-15T06:54:56.896Z,18.10
2018-06-15T06:57:25.250Z,18.20
2018-06-15T06:59:54.449Z,18.50
2018-06-15T07:02:23.565Z,18.70
2018-06-15T07:04:52.005Z,18.60
2018-06-15T07:07:20.359Z,18.70
2018-06-15T07:09:48.858Z,18.80
2018-06-15T07:12:17.202Z,19.00
2018-06-15T07:14:45.576Z,19.10
2018-06-15T07:17:14.067Z,19.20
2018-06-15T07:19:42.452Z,19.30
2018-06-15T07:22:10.817Z,19.40
2018-06-15T07:24:39.186Z,19.40
2018-06-15T07:27:07.725Z,19.50
2018-06-15T07:29:36.105Z,19.50
2018-06-15T07:32:04.506Z,19.50
2018-06-15T07:34:33.822Z,19.40
2018-06-15T07:37:02.957Z,19.30
2018-06-15T07:39:31.314Z,19.30
2018-06-15T07:41:59.780Z,19.30
2018-06-15T07:44:28.157Z,19.40
2018-06-15T07:46:57.318Z,19.50
2018-06-15T07:49:25.724Z,19.50
2018-06-15T07:51:54.951Z,19.60
2018-06-15T07:54:23.562Z,19.60
2018-06-15T07:56:52.074Z,19.80
2018-06-15T07:59:20.544Z,20.00
2018-06-15T08:01:49.033Z,20.20
2018-06-15T08:04:17.509Z,20.30
2018-06-15T08:06:45.906Z,20.40
2018-06-15T08:09:14.304Z,20.40
2018-06-15T08:11:42.788Z,20.50
2018-06-15T08:14:11.914Z,20.80
2018-06-15T08:16:40.269Z,20.80
2018-06-15T08:19:08.635Z,20.90
2018-06-15T08:21:37.826Z,21.10
2018-06-15T08:24:06.229Z,21.10
2018-06-15T08:26:34.716Z,21.20
2018-06-15T08:29:03.083Z,21.30
2018-06-15T08:31:31.451Z,21.30
2018-06-15T08:34:00.609Z,21.50
2018-06-15T08:36:28.958Z,21.50
2018-06-15T08:38:57.450Z,21.60
2018-06-15T08:41:25.868Z,21.70
2018-06-15T08:43:54.284Z,21.80
2018-06-15T08:46:23.142Z,22.00
2018-06-15T08:48:51.497Z,22.10
2018-06-15T08:51:19.879Z,22.10
2018-06-15T08:53:48.449Z,22.10
2018-06-15T08:56:16.807Z,22.10
2018-06-15T08:58:45.152Z,22.10
2018-06-15T09:01:14.289Z,22.20
2018-06-15T09:03:42.669Z,22.20
2018-06-15T09:06:11.047Z,22.20
2018-06-15T09:08:39.405Z,22.20
2018-06-15T09:11:07.972Z,22.20
2018-06-15T09:13:36.317Z,22.10
2018-06-15T09:16:04.675Z,22.00
2018-06-15T09:18:33.058Z,21.90
2018-06-15T09:21:01.431Z,22.00
2018-06-15T09:23:29.827Z,22.10
2018-06-15T09:25:58.338Z,22.20
2018-06-15T09:28:26.888Z,22.30
2018-06-15T09:30:55.324Z,22.40
2018-06-15T09:33:23.665Z,22.50
2018-06-15T09:35:52.035Z,22.50
2018-06-15T09:38:20.409Z,22.70
2018-06-15T09:40:48.943Z,22.80
2018-06-15T09:43:18.290Z,23.20
2018-06-15T09:45:46.713Z,23.10
2018-06-15T09:48:16.235Z,23.40
2018-06-15T09:50:44.834Z,23.40
2018-06-15T09:53:13.276Z,23.60
2018-06-15T09:55:41.614Z,24.00
2018-06-15T09:58:11.139Z,24.60
2018-06-15T10:00:39.687Z,24.70
2018-06-15T10:03:08.363Z,24.80
2018-06-15T10:05:37.896Z,24.60
2018-06-15T10:08:06.492Z,24.60
2018-06-15T10:10:34.899Z,24.50
2018-06-15T10:13:03.598Z,24.40
2018-06-15T10:15:32.044Z,24.20
2018-06-15T10:18:01.000Z,24.20
2018-06-15T10:20:29.481Z,24.30
2018-06-15T10:22:57.924Z,24.20
2018-06-15T10:25:26.297Z,24.30
2018-06-15T10:27:54.671Z,24.40
2018-06-15T10:30:23.161Z,24.60
2018-06-15T10:32:51.537Z,24.70
2018-06-15T10:35:20.281Z,24.80
2018-06-15T10:37:48.668Z,24.90
2018-06-15T10:40:17.058Z,24.90
2018-06-15T10:42:45.661Z,24.80
2018-06-15T10:45:15.164Z,25.10
2018-06-15T10:47:43.544Z,25.20
2018-06-15T10:50:11.969Z,25.40
2018-06-15T10:52:41.112Z,25.30
2018-06-15T10:55:09.543Z,25.30
2018-06-15T10:57:38.845Z,24.90
2018-06-15T11:00:07.214Z,24.90
2018-06-15T11:02:36.432Z,24.20
2018-06-15T11:05:04.828Z,24.20
2018-06-15T11:07:33.200Z,23.90
2018-06-15T11:10:01.563Z,23.80
2018-06-15T11:12:30.875Z,23.30
2018-06-15T11:15:00.149Z,23.20
2018-06-15T11:17:28.564Z,23.20
2018-06-15T11:19:56.956Z,23.00
2018-06-15T11:22:25.239Z,22.80
2018-06-15T11:24:53.980Z,22.60
2018-06-15T11:27:22.323Z,22.40
2018-06-15T11:29:51.155Z,22.30
2018-06-15T11:32:20.455Z,21.90
2018-06-15T11:34:49.637Z,21.60
2018-06-15T11:37:18.029Z,21.60
2018-06-15T11:39:47.153Z,21.40
2018-06-15T11:42:15.654Z,21.40
2018-06-15T11:44:44.002Z,21.30
2018-06-15T11:47:12.376Z,21.10
2018-06-15T11:49:40.897Z,21.00
2018-06-15T11:52:09.387Z,20.90
2018-06-15T11:54:38.549Z,20.80
2018-06-15T11:57:07.026Z,20.80
2018-06-15T11:59:35.461Z,20.70
2018-06-15T12:02:03.905Z,20.70
2018-06-15T12:04:32.247Z,20.60
2018-06-15T12:07:01.496Z,20.60
2018-06-15T12:09:30.187Z,20.60
2018-06-15T12:12:02.584Z,20.60
2018-06-15T12:14:30.942Z,20.60
2018-06-15T12:16:59.279Z,20.70
2018-06-15T12:19:27.627Z,20.70
2018-06-15T12:21:56.015Z,20.80
2018-06-15T12:24:24.351Z,20.90
2018-06-15T12:26:52.705Z,21.00
2018-06-15T12:29:21.123Z,21.20
2018-06-15T12:31:49.476Z,21.40
2018-06-15T12:34:18.034Z,21.70
2018-06-15T12:36:46.422Z,22.10
2018-06-15T12:39:14.831Z,22.40
2018-06-15T12:41:43.222Z,22.70
2018-06-15T12:44:11.581Z,23.10
2018-06-15T12:46:39.949Z,23.80
2018-06-15T12:49:08.346Z,24.50
2018-06-15T12:51:36.681Z,25.40
2018-06-15T12:54:05.825Z,26.80
2018-06-15T12:56:34.192Z,26.80
2018-06-15T12:59:02.673Z,27.50
2018-06-15T13:01:32.708Z,28.10
2018-06-15T13:04:01.239Z,28.70
2018-06-15T13:06:29.823Z,29.20
2018-06-15T13:08:58.242Z,29.70
2018-06-15T13:11:26.630Z,30.20
2018-06-15T13:13:55.001Z,30.40
2018-06-15T13:16:23.602Z,30.50
2018-06-15T13:18:51.945Z,30.60
2018-06-15T13:21:20.942Z,30.50
2018-06-15T13:23:49.353Z,30.20
2018-06-15T13:26:18.443Z,30.10
2018-06-15T13:28:46.781Z,30.00
2018-06-15T13:31:15.348Z,30.00
2018-06-15T13:33:43.778Z,30.30
2018-06-15T13:36:12.168Z,30.60
2018-06-15T13:38:40.540Z,31.10
2018-06-15T13:41:08.944Z,31.50
2018-06-15T13:43:37.444Z,31.50
2018-06-15T13:46:05.775Z,30.80
2018-06-15T13:48:34.261Z,30.10
2018-06-15T13:51:02.638Z,29.90
2018-06-15T13:53:31.128Z,29.90
2018-06-15T13:55:59.480Z,30.20
2018-06-15T13:58:27.983Z,30.30
2018-06-15T14:00:56.314Z,30.00
2018-06-15T14:03:25.440Z,29.50
2018-06-15T14:05:53.787Z,29.40
2018-06-15T14:08:22.159Z,29.70
2018-06-15T14:10:51.328Z,30.60
2018-06-15T14:13:19.710Z,30.60
2018-06-15T14:15:48.233Z,31.20
2018-06-15T14:18:16.658Z,31.60
2018-06-15T14:20:45.100Z,32.00
2018-06-15T14:23:14.234Z,32.20
2018-06-15T14:25:42.588Z,32.20
2018-06-15T14:28:11.711Z,32.30
2018-06-15T14:30:40.086Z,32.40
2018-06-15T14:33:08.449Z,32.30
2018-06-15T14:35:37.779Z,32.20
2018-06-15T14:38:06.172Z,32.30
2018-06-15T14:40:34.539Z,32.40
2018-06-15T14:43:02.928Z,32.30
2018-06-15T14:45:31.293Z,32.10
2018-06-15T14:48:02.612Z,31.80
2018-06-15T14:50:31.716Z,31.90
2018-06-15T14:53:03.717Z,31.90
2018-06-15T14:55:32.014Z,32.00
2018-06-15T14:58:00.464Z,32.20
2018-06-15T15:00:29.301Z,32.10
2018-06-15T15:03:00.499Z,31.30
2018-06-15T15:05:28.886Z,31.30
2018-06-15T15:07:57.304Z,31.30
2018-06-15T15:10:25.610Z,31.10
2018-06-15T15:12:54.019Z,30.70
2018-06-15T15:15:22.679Z,30.30
2018-06-15T15:17:51.059Z,29.80
2018-06-15T15:20:19.402Z,29.20
2018-06-15T15:22:47.764Z,28.70
2018-06-15T15:25:17.230Z,28.40
2018-06-15T15:27:45.594Z,28.20
2018-06-15T15:30:14.055Z,27.90
2018-06-15T15:32:42.450Z,27.70
2018-06-15T15:35:11.670Z,27.50
2018-06-15T15:37:40.054Z,27.50
2018-06-15T15:40:08.428Z,27.40
2018-06-15T15:42:37.081Z,27.40
2018-06-15T15:45:05.685Z,27.40
2018-06-15T15:47:34.895Z,27.40
2018-06-15T15:50:03.242Z,27.50
2018-06-15T15:52:31.626Z,27.80
2018-06-15T15:55:00.768Z,27.90
2018-06-15T15:57:29.112Z,27.90
2018-06-15T15:59:57.691Z,27.70
2018-06-15T16:02:26.823Z,27.50
2018-06-15T16:04:55.390Z,27.50
2018-06-15T16:07:24.571Z,27.50
2018-06-15T16:09:53.511Z,27.60
2018-06-15T16:12:25.223Z,27.60
2018-06-15T16:14:55.546Z,28.00
2018-06-15T16:17:24.697Z,28.70
2018-06-15T16:19:53.167Z,28.70
2018-06-15T16:22:21.837Z,28.80
2018-06-15T16:24:50.268Z,29.20
2018-06-15T16:27:18.688Z,29.60
2018-06-15T16:29:47.100Z,29.50
2018-06-15T16:32:15.476Z,29.50
2018-06-15T16:34:43.843Z,29.40
2018-06-15T16:37:12.279Z,29.50
2018-06-15T16:39:40.712Z,29.50
2018-06-15T16:42:09.079Z,30.00
2018-06-15T16:44:37.437Z,30.80
2018-06-15T16:47:05.819Z,30.90
2018-06-15T16:49:34.193Z,30.90
2018-06-15T16:52:03.583Z,31.10
2018-06-15T16:54:32.032Z,31.10
2018-06-15T16:57:01.230Z,30.20
2018-06-15T16:59:29.665Z,30.20
2018-06-15T17:01:58.043Z,29.80
2018-06-15T17:04:26.416Z,29.60
2018-06-15T17:06:55.523Z,29.50
2018-06-15T17:09:24.182Z,29.60
2018-06-15T17:11:52.530Z,29.70
2018-06-15T17:14:20.995Z,29.50
2018-06-15T17:16:49.380Z,29.50
2018-06-15T17:19:17.719Z,29.60
2018-06-15T17:21:46.169Z,29.50
2018-06-15T17:24:14.941Z,29.80
2018-06-15T17:26:43.702Z,30.20
2018-06-15T17:29:12.500Z,30.60
2018-06-15T17:31:40.982Z,31.10
2018-06-15T17:34:09.950Z,31.00
2018-06-15T17:36:38.313Z,30.40
2018-06-15T17:39:08.213Z,30.20
2018-06-15T17:41:37.363Z,30.30
2018-06-15T17:44:05.901Z,30.30
2018-06-15T17:46:34.578Z,30.30
2018-06-15T17:49:04.036Z,30.40
2018-06-15T17:51:32.976Z,30.30
2018-06-15T17:54:02.200Z,30.10
2018-06-15T17:56:31.165Z,30.00
2018-06-15T17:59:00.809Z,28.80
2018-06-15T18:01:29.639Z,28.70
2018-06-15T18:03:58.192Z,28.30
2018-06-15T18:06:27.117Z,27.80
2018-06-15T18:08:56.368Z,27.50
2018-06-15T18:11:25.245Z,27.50
2018-06-15T18:13:54.805Z,26.90
2018-06-15T18:16:23.729Z,26.80
2018-06-15T18:18:52.163Z,26.50
2018-06-15T18:21:20.547Z,26.20
2018-06-15T18:23:48.911Z,25.90
2018-06-15T18:26:17.254Z,25.60
2018-06-15T18:28:46.398Z,24.90
2018-06-15T18:31:14.822Z,24.80
2018-06-15T18:33:43.174Z,24.60
2018-06-15T18:36:12.399Z,24.30
2018-06-15T18:38:40.837Z,24.00
2018-06-15T18:41:09.202Z,23.70
2018-06-15T18:43:38.770Z,23.50
2018-06-15T18:46:07.295Z,23.20
2018-06-15T18:48:35.749Z,23.10
2018-06-15T18:51:04.912Z,22.70
2018-06-15T18:53:33.477Z,22.70
2018-06-15T18:56:01.863Z,22.50
2018-06-15T18:58:30.210Z,22.40
2018-06-15T19:00:58.576Z,22.30
2018-06-15T19:03:26.937Z,22.30
2018-06-15T19:05:56.098Z,22.10
2018-06-15T19:08:24.471Z,22.10
2018-06-15T19:10:52.907Z,22.00
2018-06-15T19:13:21.277Z,21.90
2018-06-15T19:15:49.695Z,21.80
2018-06-15T19:18:18.043Z,21.80
2018-06-15T19:20:47.167Z,21.60
2018-06-15T19:23:15.675Z,21.60
2018-06-15T19:25:44.006Z,21.60
2018-06-15T19:28:12.382Z,21.50
2018-06-15T19:30:41.533Z,21.30
2018-06-15T19:33:09.893Z,21.40
2018-06-15T19:35:38.294Z,21.30
2018-06-15T19:38:06.883Z,21.20
2018-06-15T19:40:35.239Z,21.10
2018-06-15T19:43:03.618Z,21.10
2018-06-15T19:45:31.969Z,21.00
2018-06-15T19:48:00.464Z,20.90
2018-06-15T19:50:28.898Z,20.90
2018-06-15T19:52:57.252Z,20.80
2018-06-15T19:55:25.598Z,20.70
2018-06-15T19:57:53.996Z,20.60
2018-06-15T20:00:22.447Z,20.60
2018-06-15T20:02:50.799Z,20.50
2018-06-15T20:05:20.169Z,20.50
2018-06-15T20:07:48.613Z,20.40
2018-06-15T20:10:16.958Z,20.50
2018-06-15T20:12:45.308Z,20.40
2018-06-15T20:15:13.670Z,20.40
2018-06-15T20:17:42.051Z,20.40
2018-06-15T20:20:10.515Z,20.40
2018-06-15T20:22:38.891Z,20.30
2018-06-15T20:25:07.273Z,20.30
2018-06-15T20:27:35.621Z,20.30
2018-06-15T20:30:04.147Z,20.20
2018-06-15T20:32:32.596Z,20.20
2018-06-15T20:35:01.827Z,20.10
2018-06-15T20:37:30.207Z,20.00
2018-06-15T20:39:58.730Z,20.00
2018-06-15T20:42:27.185Z,20.00
2018-06-15T20:44:55.733Z,19.90
2018-06-15T20:47:24.138Z,19.90
2018-06-15T20:49:52.524Z,19.80
2018-06-15T20:52:20.867Z,19.80
2018-06-15T20:54:49.210Z,19.70
2018-06-15T20:57:17.651Z,19.70
2018-06-15T20:59:47.079Z,19.70
2018-06-15T21:02:15.594Z,19.60
2018-06-15T21:04:44.011Z,19.60
2018-06-15T21:07:12.414Z,19.60
2018-06-15T21:09:40.766Z,19.50
2018-06-15T21:12:09.822Z,19.50
2018-06-15T21:14:38.303Z,19.40
2018-06-15T21:17:07.790Z,19.30
2018-06-15T21:19:36.967Z,19.20
2018-06-15T21:22:05.347Z,19.20
2018-06-15T21:24:33.787Z,19.10
2018-06-15T21:27:02.919Z,19.00
2018-06-15T21:29:31.283Z,19.00
2018-06-15T21:31:59.795Z,19.00
2018-06-15T21:34:29.095Z,18.80
2018-06-15T21:36:57.458Z,18.80
2018-06-15T21:39:25.921Z,18.80
2018-06-15T21:41:54.372Z,18.70
2018-06-15T21:44:22.759Z,18.70
2018-06-15T21:46:51.107Z,18.60
2018-06-15T21:49:19.454Z,18.50
2018-06-15T21:51:47.811Z,18.40
2018-06-15T21:54:16.226Z,18.30
2018-06-15T21:56:44.951Z,18.30
2018-06-15T21:59:13.323Z,18.30
2018-06-15T22:01:41.754Z,18.20
2018-06-15T22:04:10.090Z,18.10
2018-06-15T22:06:39.202Z,18.00
2018-06-15T22:09:08.321Z,17.90
2018-06-15T22:11:36.689Z,17.90
2018-06-15T22:14:05.811Z,17.90
2018-06-15T22:16:34.152Z,17.90
2018-06-15T22:19:03.269Z,17.90
2018-06-15T22:21:31.706Z,17.80
2018-06-15T22:24:00.047Z,17.80
2018-06-15T22:26:28.849Z,17.80
2018-06-15T22:28:57.223Z,17.80
2018-06-15T22:31:25.564Z,17.70
2018-06-15T22:33:53.966Z,17.70
2018-06-15T22:36:22.331Z,17.70
2018-06-15T22:38:50.673Z,17.60
2018-06-15T22:41:19.121Z,17.60
2018-06-15T22:43:47.651Z,17.60
2018-06-15T22:46:15.997Z,17.50
2018-06-15T22:48:44.338Z,17.50
2018-06-15T22:51:12.781Z,17.50
2018-06-15T22:53:41.906Z,17.40
2018-06-15T22:56:10.246Z,17.40
2018-06-15T22:58:38.609Z,17.40
2018-06-15T23:01:07.073Z,17.40
2018-06-15T23:03:35.427Z,17.40
2018-06-15T23:06:03.852Z,17.40
2018-06-15T23:08:32.225Z,17.40
2018-06-15T23:11:00.634Z,17.30
2018-06-15T23:13:29.013Z,17.30
2018-06-15T23:15:57.403Z,17.30
2018-06-15T23:18:26.515Z,17.20
2018-06-15T23:20:55.026Z,17.20
2018-06-15T23:23:23.372Z,17.20
2018-06-15T23:25:51.721Z,17.20
2018-06-15T23:28:20.062Z,17.20
2018-06-15T23:30:48.446Z,17.20
2018-06-15T23:33:16.929Z,17.10
2018-06-15T23:35:45.294Z,17.10
2018-06-15T23:38:13.684Z,17.10
2018-06-15T23:40:42.028Z,17.10
2018-06-15T23:43:11.294Z,17.00
2018-06-15T23:45:40.463Z,17.00
2018-06-15T23:48:08.822Z,17.00
2018-06-15T23:50:37.166Z,17.00
2018-06-15T23:53:06.351Z,17.00
2018-06-15T23:55:34.686Z,17.00
2018-06-15T23:58:03.070Z,17.10
